Nacogdoches, TX

4:16 PM CST on February 14, 2016 (GMT -0600)
South Side | | Change Station
CLOSE
Current Station
Personal Weather Station
Location: Nacogdoches, TX
Elevation: 331 ft
Nearby Weather Stations

Elev 331 ft 31.59 °N, 94.66 °W | Updated 3 seconds ago

Partly Cloudy
Partly Cloudy
73.4 °F
Feels Like 77 °F
N
10.7
Wind Variable Wind from South
Gusts 12.1 mph

Today
High -- | Low -- °F
--% Chance of Precip.
Yesterday
High -- | Low -- °F
Precip. -- in
Pressure 29.88 in
Visibility 10.0 miles
Clouds Clear
Heat Index 77 °F
Dew Point 50 °F
Humidity 44%
Rainfall 0.00 in
Snow Depth Not available.
7:01 AM 6:04 PM
Waxing Crescent, 46% visible
METAR KOCH 142215Z AUTO 19015KT 10SM CLR 22/10 A2988 RMK AO1
Pressure 29.88 in
Visibility 10.0 miles
Clouds Clear
Heat Index 77 °F
Dew Point 50 °F
Humidity 44%
Rainfall 0.00 in
Snow Depth Not available.
7:01 AM 6:04 PM
Waxing Crescent, 46% visible
METAR KOCH 142215Z AUTO 19015KT 10SM CLR 22/10 A2988 RMK AO1

10-Day Weather Forecast

Almanac

Astronomy

Feb. 14, 2016 Rise Set
Actual Time
Civil Twilight
Nautical Twilight
Astronomical Twilight
Moon
Length of Visible Light
Length of Day
Tomorrow will be .
, % of the Moon is Illuminated

Today's Extremes

State Highs State Lows

Community

WunderPhotos

Upload Photos

1,892,893 photos uploaded!

WunderBlog® & News

Nearby

Air Quality

  Air Quality AQ Index Pollutant
Not available.

Snow Depth

Station Depth Elevation

Earthquake Activity

City Distance Mag. Time & Date
Minimum magnitude displayed is 2.5.

Coastal Water Temperatures

Place Temperature

Stations

Nearby Weather Stations

Station Location Temp. Windchill Dew Point Humidity Wind Precip. Elev Updated Type
                   

Watches & Warnings

There are currently no watches in effect.